Airfield :
LOGIN :

Register | Disclaimer

   EN    FR    IT 

 










Legend :    VFR   Marginal VFR   IFR   Intensive IFR   Very Intensive IFR
Visi :
Ceiling :
>= 8 km
>= 3000ft
5 to 8 km
1000 to 3000 ft
1500m to 5 km
500 to 1000 ft
800 to 1500m
200 to 500 ft
< 800m
< 200 ft
Symbols :   Thunderstorms  Fog  Heavy snow  Heavy precipitations  Wind > 20 kt
SIGMETs :     Misc.  Thunderstorms  Icing  Turbulence  Mountain Waves  Volcanic Ashes






- Airport Elevation : 13 ft
- IATA code : LYX


EGMD - Lydd

CURRENT METAR :
  • 270820Z AUTO 14013KT 8000 -RA BKN009/// OVC028/// 04/03 Q0994

EXPIRED METARs :
  • 270750Z AUTO 14013KT 9000 -RA BKN009/// OVC038/// 04/04 Q0994
  • 270720Z AUTO 15013KT 9999 -RA BKN010/// OVC015/// 05/04 Q0995
  • 270650Z AUTO 16014KT 7000 -RA BKN011/// BKN015/// OVC020/// 05/04 Q0995
  • 270620Z AUTO 18016KT 6000 -RA SCT009/// BKN014/// BKN018/// 05/04 Q0996
  • 270550Z AUTO 19015KT 8000 -RA SCT012/// BKN016/// OVC022/// 05/04 Q0997
  • 270520Z AUTO 19017KT 9999 -RA SCT012/// BKN016/// OVC031/// 06/05 Q0998

TAF AMD TAF EGMD
Valid from the 27 at 07:00 until the 27 at 15:00 UTC


270737Z 2707/2715 16009KT 9999 -RA BKN010
TEMPO 2706/2711 3000 RADZ BKN003
BECMG 2711/2713 33015G25KT BKN012
BECMG 2713/2715 SCT020
ATIS : +44 1797 322 422



MET'MAP, your aeronautical weather chart ! - Copyright ORBIFLY December 2007 - Disclaimer

ORBIFLY MET'MAP TEAM :

Programming & Development : Alexandra Zaïnal
Concept & original design : Baudouin d'Aumeries
Assistance for programming : Marc-Olivier Méhu
Technical & hardware support : Manuel Goepfert

Contact : metmap@orbifly.com




SOURCES & CREDITS :

   NOAA